KAYS

Waycross-Ware County Airport

Waycross, Georgia, USA
METAR KAYS 191655Z AUTO 30006KT 10SM BKN041 31/23 A3004 RMK AO2 T03110228
Observed Flight Rules
Aug-19 @ 16:55 UTC (19 minutes ago) Visual Flight Rules
Wind Visibility Clouds
300° at 6 knots 10 miles
  • Broken at 4,100' AGL
Temperatures Readings
Current 31°C / 88°F
Dewpoint 23°C / 73°F
Humidity 62%
Altimeter 30.04" Hg
Pressure 1017 hPa
Elevation 46
METAR KAYS 191655Z AUTO 30006KT 10SM BKN041 31/23 A3004 RMK AO2 T03110228
Observed Flight Rules
Aug-19 @ 16:55 UTC
(19 minutes ago)
VFR
Wind Visibility
300° at 6 knots 10 miles
Clouds
  • Broken at 4,100' AGL
Temperature Dewpoint
31°C / 88°F 23°C / 73°F
Humidity Altimeter Pressure
62% 30.04" Hg 1017 hPa